sensor_id;sensor_type;location;lat;lon;timestamp;P1;durP1;ratioP1;P2;durP2;ratioP2
75698;SDS011;64313;51.018;13.742;2023-12-28T02:27:04;5.65;;;2.13;;
75698;SDS011;64313;51.018;13.742;2023-12-28T02:33:24;8.10;;;2.72;;
75698;SDS011;64313;51.018;13.742;2023-12-28T02:36:40;6.95;;;2.58;;
75698;SDS011;64313;51.018;13.742;2023-12-28T02:39:23;7.78;;;2.28;;
75698;SDS011;64313;51.018;13.742;2023-12-28T02:47:37;5.68;;;2.10;;
75698;SDS011;64313;51.018;13.742;2023-12-28T02:50:08;5.22;;;1.88;;
75698;SDS011;64313;51.018;13.742;2023-12-28T02:56:14;2.38;;;0.80;;
75698;SDS011;64313;51.018;13.742;2023-12-28T02:58:56;2.15;;;0.70;;
75698;SDS011;64313;51.018;13.742;2023-12-28T03:02:13;2.90;;;0.60;;
75698;SDS011;64313;51.018;13.742;2023-12-28T03:05:08;1.58;;;0.60;;
75698;SDS011;64313;51.018;13.742;2023-12-28T03:08:04;2.00;;;0.60;;
75698;SDS011;64313;51.018;13.742;2023-12-28T03:10:39;1.92;;;0.80;;
75698;SDS011;64313;51.018;13.742;2023-12-28T03:16:53;1.85;;;0.50;;
75698;SDS011;64313;51.018;13.742;2023-12-28T03:19:54;1.80;;;0.68;;
75698;SDS011;64313;51.018;13.742;2023-12-28T03:22:45;2.20;;;0.80;;
75698;SDS011;64313;51.018;13.742;2023-12-28T04:32:35;2.50;;;0.85;;
75698;SDS011;64313;51.018;13.742;2023-12-28T04:55:32;3.88;;;1.20;;
75698;SDS011;64313;51.018;13.742;2023-12-28T05:07:40;4.47;;;1.95;;
75698;SDS011;64313;51.018;13.742;2023-12-28T06:48:30;3.88;;;1.30;;
75698;SDS011;64313;51.018;13.742;2023-12-28T06:50:58;4.78;;;0.98;;
75698;SDS011;64313;51.018;13.742;2023-12-28T06:53:27;3.33;;;1.17;;
75698;SDS011;64313;51.018;13.742;2023-12-28T06:55:55;3.58;;;1.20;;
75698;SDS011;64313;51.018;13.742;2023-12-28T07:05:07;3.28;;;1.20;;
75698;SDS011;64313;51.018;13.742;2023-12-28T07:07:36;5.65;;;1.35;;
75698;SDS011;64313;51.018;13.742;2023-12-28T07:15:50;4.03;;;1.20;;
75698;SDS011;64313;51.018;13.742;2023-12-28T07:18:22;3.55;;;1.20;;
75698;SDS011;64313;51.018;13.742;2023-12-28T07:27:13;3.97;;;1.25;;
75698;SDS011;64313;51.018;13.742;2023-12-28T07:29:38;2.45;;;0.90;;
75698;SDS011;64313;51.018;13.742;2023-12-28T07:32:06;3.92;;;1.25;;
75698;SDS011;64313;51.018;13.742;2023-12-28T07:34:39;2.63;;;0.93;;
75698;SDS011;64313;51.018;13.742;2023-12-28T07:37:04;3.20;;;1.17;;
75698;SDS011;64313;51.018;13.742;2023-12-28T07:42:33;3.88;;;1.20;;
75698;SDS011;64313;51.018;13.742;2023-12-28T07:48:12;4.80;;;1.38;;
75698;SDS011;64313;51.018;13.742;2023-12-28T07:50:55;3.08;;;1.10;;
75698;SDS011;64313;51.018;13.742;2023-12-28T07:53:33;3.55;;;1.15;;
75698;SDS011;64313;51.018;13.742;2023-12-28T07:58:53;3.30;;;1.25;;
75698;SDS011;64313;51.018;13.742;2023-12-28T08:04:38;4.50;;;1.30;;
75698;SDS011;64313;51.018;13.742;2023-12-28T08:07:03;2.88;;;1.15;;
75698;SDS011;64313;51.018;13.742;2023-12-28T08:09:29;3.67;;;1.20;;
75698;SDS011;64313;51.018;13.742;2023-12-28T08:11:54;3.97;;;1.30;;
75698;SDS011;64313;51.018;13.742;2023-12-28T08:14:20;4.63;;;1.10;;
75698;SDS011;64313;51.018;13.742;2023-12-28T08:16:46;3.05;;;1.10;;
75698;SDS011;64313;51.018;13.742;2023-12-28T08:19:32;2.80;;;1.10;;
75698;SDS011;64313;51.018;13.742;2023-12-28T08:45:27;3.70;;;1.20;;
75698;SDS011;64313;51.018;13.742;2023-12-28T09:11:12;6.25;;;1.50;;
75698;SDS011;64313;51.018;13.742;2023-12-28T09:24:06;4.53;;;1.60;;
75698;SDS011;64313;51.018;13.742;2023-12-28T09:33:42;3.17;;;1.00;;
75698;SDS011;64313;51.018;13.742;2023-12-28T09:42:40;4.65;;;1.13;;
75698;SDS011;64313;51.018;13.742;2023-12-28T09:45:36;4.50;;;1.30;;
75698;SDS011;64313;51.018;13.742;2023-12-28T09:59:35;4.85;;;1.33;;
75698;SDS011;64313;51.018;13.742;2023-12-28T10:02:10;3.78;;;1.58;;
75698;SDS011;64313;51.018;13.742;2023-12-28T10:07:54;4.40;;;1.27;;
75698;SDS011;64313;51.018;13.742;2023-12-28T10:13:32;2.55;;;1.10;;
75698;SDS011;64313;51.018;13.742;2023-12-28T10:16:03;3.50;;;1.25;;
75698;SDS011;64313;51.018;13.742;2023-12-28T10:18:36;3.22;;;1.20;;
75698;SDS011;64313;51.018;13.742;2023-12-28T10:30:24;4.20;;;1.38;;
75698;SDS011;64313;51.018;13.742;2023-12-28T10:32:50;3.20;;;1.10;;
75698;SDS011;64313;51.018;13.742;2023-12-28T10:39:23;3.05;;;1.10;;
75698;SDS011;64313;51.018;13.742;2023-12-28T10:44:48;3.80;;;1.20;;
75698;SDS011;64313;51.018;13.742;2023-12-28T10:53:56;3.63;;;1.10;;
75698;SDS011;64313;51.018;13.742;2023-12-28T11:02:22;5.53;;;1.48;;
75698;SDS011;64313;51.018;13.742;2023-12-28T11:13:12;3.65;;;1.20;;
75698;SDS011;64313;51.018;13.742;2023-12-28T11:34:38;5.50;;;1.20;;
75698;SDS011;64313;51.018;13.742;2023-12-28T11:38:01;5.88;;;1.58;;
75698;SDS011;64313;51.018;13.742;2023-12-28T11:40:31;3.67;;;1.42;;
75698;SDS011;64313;51.018;13.742;2023-12-28T11:43:04;4.18;;;1.25;;
75698;SDS011;64313;51.018;13.742;2023-12-28T11:45:41;4.32;;;1.50;;
75698;SDS011;64313;51.018;13.742;2023-12-28T11:48:21;4.68;;;1.65;;
75698;SDS011;64313;51.018;13.742;2023-12-28T11:50:47;3.70;;;1.20;;
75698;SDS011;64313;51.018;13.742;2023-12-28T11:53:13;3.50;;;1.30;;
75698;SDS011;64313;51.018;13.742;2023-12-28T11:55:39;3.78;;;1.30;;
75698;SDS011;64313;51.018;13.742;2023-12-28T11:58:04;3.40;;;1.20;;
75698;SDS011;64313;51.018;13.742;2023-12-28T12:00:29;3.60;;;1.23;;
75698;SDS011;64313;51.018;13.742;2023-12-28T12:02:55;3.85;;;1.20;;
75698;SDS011;64313;51.018;13.742;2023-12-28T12:05:20;3.67;;;1.40;;
75698;SDS011;64313;51.018;13.742;2023-12-28T12:07:46;4.43;;;1.08;;
75698;SDS011;64313;51.018;13.742;2023-12-28T12:10:14;3.03;;;1.23;;
75698;SDS011;64313;51.018;13.742;2023-12-28T12:12:40;4.20;;;1.20;;
75698;SDS011;64313;51.018;13.742;2023-12-28T12:15:05;2.55;;;1.05;;
75698;SDS011;64313;51.018;13.742;2023-12-28T12:17:32;4.65;;;1.05;;
75698;SDS011;64313;51.018;13.742;2023-12-28T12:19:58;2.90;;;1.10;;
75698;SDS011;64313;51.018;13.742;2023-12-28T12:22:23;3.25;;;1.10;;
75698;SDS011;64313;51.018;13.742;2023-12-28T12:24:48;4.30;;;1.20;;
75698;SDS011;64313;51.018;13.742;2023-12-28T12:27:16;3.60;;;1.00;;
75698;SDS011;64313;51.018;13.742;2023-12-28T12:29:42;3.40;;;1.20;;
75698;SDS011;64313;51.018;13.742;2023-12-28T12:32:07;2.85;;;1.00;;
75698;SDS011;64313;51.018;13.742;2023-12-28T12:34:33;3.75;;;1.10;;
75698;SDS011;64313;51.018;13.742;2023-12-28T12:36:59;2.90;;;1.00;;
75698;SDS011;64313;51.018;13.742;2023-12-28T12:39:25;2.95;;;1.00;;
75698;SDS011;64313;51.018;13.742;2023-12-28T12:41:51;3.35;;;1.20;;
75698;SDS011;64313;51.018;13.742;2023-12-28T12:44:18;3.67;;;1.20;;
75698;SDS011;64313;51.018;13.742;2023-12-28T12:46:44;3.22;;;1.10;;
75698;SDS011;64313;51.018;13.742;2023-12-28T12:49:10;3.47;;;1.00;;
75698;SDS011;64313;51.018;13.742;2023-12-28T12:51:35;4.70;;;1.20;;
75698;SDS011;64313;51.018;13.742;2023-12-28T12:54:00;2.45;;;0.95;;
75698;SDS011;64313;51.018;13.742;2023-12-28T12:56:30;2.60;;;0.95;;
75698;SDS011;64313;51.018;13.742;2023-12-28T12:58:56;4.15;;;1.00;;
75698;SDS011;64313;51.018;13.742;2023-12-28T13:01:25;3.20;;;0.93;;
75698;SDS011;64313;51.018;13.742;2023-12-28T13:03:51;3.10;;;1.25;;
75698;SDS011;64313;51.018;13.742;2023-12-28T13:06:16;4.75;;;1.17;;
75698;SDS011;64313;51.018;13.742;2023-12-28T13:08:42;3.67;;;1.10;;
75698;SDS011;64313;51.018;13.742;2023-12-28T13:11:07;3.08;;;1.27;;
75698;SDS011;64313;51.018;13.742;2023-12-28T13:13:33;3.40;;;1.13;;
75698;SDS011;64313;51.018;13.742;2023-12-28T13:15:59;2.70;;;0.90;;
75698;SDS011;64313;51.018;13.742;2023-12-28T13:18:25;2.15;;;0.88;;
75698;SDS011;64313;51.018;13.742;2023-12-28T13:20:50;2.33;;;0.98;;
75698;SDS011;64313;51.018;13.742;2023-12-28T13:23:15;2.97;;;1.00;;
75698;SDS011;64313;51.018;13.742;2023-12-28T13:25:41;3.83;;;1.58;;
75698;SDS011;64313;51.018;13.742;2023-12-28T13:28:06;3.28;;;1.05;;
75698;SDS011;64313;51.018;13.742;2023-12-28T13:30:32;2.58;;;0.90;;
75698;SDS011;64313;51.018;13.742;2023-12-28T13:32:57;3.05;;;0.95;;
75698;SDS011;64313;51.018;13.742;2023-12-28T13:35:23;3.80;;;1.00;;
75698;SDS011;64313;51.018;13.742;2023-12-28T13:37:48;4.40;;;1.05;;
75698;SDS011;64313;51.018;13.742;2023-12-28T13:40:14;4.03;;;1.00;;
75698;SDS011;64313;51.018;13.742;2023-12-28T13:42:40;3.53;;;1.02;;
75698;SDS011;64313;51.018;13.742;2023-12-28T13:45:05;2.63;;;0.80;;
75698;SDS011;64313;51.018;13.742;2023-12-28T13:47:31;3.00;;;1.00;;
75698;SDS011;64313;51.018;13.742;2023-12-28T13:49:57;2.53;;;0.82;;
75698;SDS011;64313;51.018;13.742;2023-12-28T13:52:22;2.80;;;0.90;;
75698;SDS011;64313;51.018;13.742;2023-12-28T13:54:47;3.33;;;1.02;;
75698;SDS011;64313;51.018;13.742;2023-12-28T13:57:12;3.13;;;1.00;;
75698;SDS011;64313;51.018;13.742;2023-12-28T13:59:38;3.00;;;1.00;;
75698;SDS011;64313;51.018;13.742;2023-12-28T14:02:03;3.28;;;1.00;;
75698;SDS011;64313;51.018;13.742;2023-12-28T14:04:29;2.92;;;0.95;;
75698;SDS011;64313;51.018;13.742;2023-12-28T14:06:54;2.92;;;1.00;;
75698;SDS011;64313;51.018;13.742;2023-12-28T14:09:19;3.05;;;1.08;;
75698;SDS011;64313;51.018;13.742;2023-12-28T14:11:46;3.50;;;0.98;;
75698;SDS011;64313;51.018;13.742;2023-12-28T14:14:12;2.55;;;1.00;;
75698;SDS011;64313;51.018;13.742;2023-12-28T14:16:38;4.40;;;1.13;;
75698;SDS011;64313;51.018;13.742;2023-12-28T14:19:03;4.00;;;1.23;;
75698;SDS011;64313;51.018;13.742;2023-12-28T14:21:28;3.45;;;1.13;;
75698;SDS011;64313;51.018;13.742;2023-12-28T14:23:54;3.83;;;1.42;;
75698;SDS011;64313;51.018;13.742;2023-12-28T14:26:20;4.22;;;1.50;;
75698;SDS011;64313;51.018;13.742;2023-12-28T14:28:46;4.82;;;1.40;;
75698;SDS011;64313;51.018;13.742;2023-12-28T14:31:12;3.85;;;1.13;;
75698;SDS011;64313;51.018;13.742;2023-12-28T14:33:38;4.07;;;1.40;;
75698;SDS011;64313;51.018;13.742;2023-12-28T14:36:10;4.10;;;1.27;;
75698;SDS011;64313;51.018;13.742;2023-12-28T14:38:48;3.55;;;1.20;;
75698;SDS011;64313;51.018;13.742;2023-12-28T14:41:13;4.10;;;1.23;;
75698;SDS011;64313;51.018;13.742;2023-12-28T14:43:39;3.55;;;1.20;;
75698;SDS011;64313;51.018;13.742;2023-12-28T14:46:04;3.30;;;1.20;;
75698;SDS011;64313;51.018;13.742;2023-12-28T14:48:29;3.60;;;1.20;;
75698;SDS011;64313;51.018;13.742;2023-12-28T14:50:56;4.63;;;1.55;;
75698;SDS011;64313;51.018;13.742;2023-12-28T14:53:22;3.45;;;1.20;;
75698;SDS011;64313;51.018;13.742;2023-12-28T14:55:49;4.80;;;1.42;;
75698;SDS011;64313;51.018;13.742;2023-12-28T14:58:15;5.03;;;1.27;;
75698;SDS011;64313;51.018;13.742;2023-12-28T15:00:43;3.45;;;1.10;;
75698;SDS011;64313;51.018;13.742;2023-12-28T15:03:08;4.25;;;1.35;;
75698;SDS011;64313;51.018;13.742;2023-12-28T15:05:34;3.55;;;1.15;;
75698;SDS011;64313;51.018;13.742;2023-12-28T15:07:59;3.45;;;1.35;;
75698;SDS011;64313;51.018;13.742;2023-12-28T15:10:25;5.22;;;1.70;;
75698;SDS011;64313;51.018;13.742;2023-12-28T15:12:50;5.28;;;1.88;;
75698;SDS011;64313;51.018;13.742;2023-12-28T15:15:16;6.40;;;1.80;;
75698;SDS011;64313;51.018;13.742;2023-12-28T15:17:41;5.13;;;1.80;;
75698;SDS011;64313;51.018;13.742;2023-12-28T15:20:08;5.05;;;1.63;;
75698;SDS011;64313;51.018;13.742;2023-12-28T15:22:33;5.25;;;1.73;;
75698;SDS011;64313;51.018;13.742;2023-12-28T15:24:59;4.03;;;1.52;;
75698;SDS011;64313;51.018;13.742;2023-12-28T15:27:25;4.50;;;1.50;;
75698;SDS011;64313;51.018;13.742;2023-12-28T15:29:50;4.55;;;1.60;;
75698;SDS011;64313;51.018;13.742;2023-12-28T15:32:15;5.30;;;1.70;;
75698;SDS011;64313;51.018;13.742;2023-12-28T15:34:41;4.43;;;1.73;;
75698;SDS011;64313;51.018;13.742;2023-12-28T15:37:06;4.43;;;1.63;;
75698;SDS011;64313;51.018;13.742;2023-12-28T15:39:32;4.10;;;1.40;;
75698;SDS011;64313;51.018;13.742;2023-12-28T15:41:58;3.65;;;1.45;;
75698;SDS011;64313;51.018;13.742;2023-12-28T15:44:24;4.78;;;1.60;;
75698;SDS011;64313;51.018;13.742;2023-12-28T15:46:49;4.25;;;2.10;;
75698;SDS011;64313;51.018;13.742;2023-12-28T15:49:15;7.88;;;4.18;;
75698;SDS011;64313;51.018;13.742;2023-12-28T15:51:41;8.20;;;5.40;;
75698;SDS011;64313;51.018;13.742;2023-12-28T15:54:06;7.65;;;4.30;;
75698;SDS011;64313;51.018;13.742;2023-12-28T15:56:31;6.40;;;3.75;;
75698;SDS011;64313;51.018;13.742;2023-12-28T15:58:57;5.10;;;2.70;;
75698;SDS011;64313;51.018;13.742;2023-12-28T16:01:22;4.72;;;2.00;;
75698;SDS011;64313;51.018;13.742;2023-12-28T16:03:47;5.85;;;2.10;;
75698;SDS011;64313;51.018;13.742;2023-12-28T16:06:13;4.05;;;1.80;;
75698;SDS011;64313;51.018;13.742;2023-12-28T16:08:38;4.85;;;1.70;;
75698;SDS011;64313;51.018;13.742;2023-12-28T16:11:06;4.72;;;1.77;;
75698;SDS011;64313;51.018;13.742;2023-12-28T16:13:34;4.72;;;1.90;;
75698;SDS011;64313;51.018;13.742;2023-12-28T16:16:02;4.70;;;1.90;;
75698;SDS011;64313;51.018;13.742;2023-12-28T16:18:28;4.10;;;1.90;;
75698;SDS011;64313;51.018;13.742;2023-12-28T16:20:54;5.22;;;1.95;;
75698;SDS011;64313;51.018;13.742;2023-12-28T16:23:20;4.20;;;1.50;;
75698;SDS011;64313;51.018;13.742;2023-12-28T16:25:45;4.35;;;1.45;;
75698;SDS011;64313;51.018;13.742;2023-12-28T16:28:11;4.75;;;1.67;;
75698;SDS011;64313;51.018;13.742;2023-12-28T16:30:36;5.70;;;1.52;;
75698;SDS011;64313;51.018;13.742;2023-12-28T16:33:02;3.88;;;1.30;;
75698;SDS011;64313;51.018;13.742;2023-12-28T16:35:27;4.00;;;1.60;;
75698;SDS011;64313;51.018;13.742;2023-12-28T16:37:52;8.32;;;3.03;;
75698;SDS011;64313;51.018;13.742;2023-12-28T16:40:18;7.50;;;2.78;;
75698;SDS011;64313;51.018;13.742;2023-12-28T16:42:43;7.03;;;2.78;;
75698;SDS011;64313;51.018;13.742;2023-12-28T16:45:09;6.97;;;3.03;;
75698;SDS011;64313;51.018;13.742;2023-12-28T16:47:34;6.78;;;3.28;;
75698;SDS011;64313;51.018;13.742;2023-12-28T16:49:59;8.07;;;4.57;;
75698;SDS011;64313;51.018;13.742;2023-12-28T16:52:25;9.98;;;4.68;;
75698;SDS011;64313;51.018;13.742;2023-12-28T16:54:50;7.40;;;3.33;;
75698;SDS011;64313;51.018;13.742;2023-12-28T16:57:15;7.18;;;3.13;;
75698;SDS011;64313;51.018;13.742;2023-12-28T16:59:41;10.90;;;3.92;;
75698;SDS011;64313;51.018;13.742;2023-12-28T17:02:06;7.32;;;3.00;;
75698;SDS011;64313;51.018;13.742;2023-12-28T17:04:31;5.93;;;1.80;;
75698;SDS011;64313;51.018;13.742;2023-12-28T17:06:57;4.80;;;1.90;;
75698;SDS011;64313;51.018;13.742;2023-12-28T17:09:23;4.60;;;1.60;;
75698;SDS011;64313;51.018;13.742;2023-12-28T17:11:50;4.72;;;1.70;;
75698;SDS011;64313;51.018;13.742;2023-12-28T17:14:23;4.22;;;1.80;;
75698;SDS011;64313;51.018;13.742;2023-12-28T17:16:48;4.40;;;1.70;;
75698;SDS011;64313;51.018;13.742;2023-12-28T17:19:15;5.05;;;2.10;;
75698;SDS011;64313;51.018;13.742;2023-12-28T17:21:40;4.88;;;1.67;;
75698;SDS011;64313;51.018;13.742;2023-12-28T17:24:08;5.63;;;2.25;;
75698;SDS011;64313;51.018;13.742;2023-12-28T17:26:46;4.97;;;1.80;;
75698;SDS011;64313;51.018;13.742;2023-12-28T17:29:14;4.72;;;1.92;;
75698;SDS011;64313;51.018;13.742;2023-12-28T17:31:40;5.22;;;2.10;;
75698;SDS011;64313;51.018;13.742;2023-12-28T17:34:09;5.15;;;1.95;;
75698;SDS011;64313;51.018;13.742;2023-12-28T17:36:34;4.30;;;1.60;;
75698;SDS011;64313;51.018;13.742;2023-12-28T17:39:00;3.45;;;1.30;;
75698;SDS011;64313;51.018;13.742;2023-12-28T17:41:32;5.03;;;1.65;;
75698;SDS011;64313;51.018;13.742;2023-12-28T17:44:08;4.45;;;2.00;;
75698;SDS011;64313;51.018;13.742;2023-12-28T17:46:40;4.97;;;1.75;;
75698;SDS011;64313;51.018;13.742;2023-12-28T17:49:11;5.95;;;1.63;;
75698;SDS011;64313;51.018;13.742;2023-12-28T17:51:41;4.95;;;1.73;;
75698;SDS011;64313;51.018;13.742;2023-12-28T17:54:08;4.30;;;1.88;;
75698;SDS011;64313;51.018;13.742;2023-12-28T17:56:34;4.70;;;2.13;;
75698;SDS011;64313;51.018;13.742;2023-12-28T17:58:59;3.85;;;1.63;;
75698;SDS011;64313;51.018;13.742;2023-12-28T18:01:25;4.57;;;1.98;;
75698;SDS011;64313;51.018;13.742;2023-12-28T18:03:50;5.93;;;2.60;;
75698;SDS011;64313;51.018;13.742;2023-12-28T18:06:15;6.00;;;2.15;;
75698;SDS011;64313;51.018;13.742;2023-12-28T18:11:35;5.25;;;1.73;;
75698;SDS011;64313;51.018;13.742;2023-12-28T18:14:01;5.13;;;1.70;;
75698;SDS011;64313;51.018;13.742;2023-12-28T18:16:26;4.88;;;1.90;;
75698;SDS011;64313;51.018;13.742;2023-12-28T18:18:51;4.30;;;1.60;;
75698;SDS011;64313;51.018;13.742;2023-12-28T18:21:17;4.22;;;1.60;;
75698;SDS011;64313;51.018;13.742;2023-12-28T18:23:42;2.92;;;1.17;;
75698;SDS011;64313;51.018;13.742;2023-12-28T18:26:08;3.95;;;1.35;;
75698;SDS011;64313;51.018;13.742;2023-12-28T18:28:33;4.57;;;1.90;;
75698;SDS011;64313;51.018;13.742;2023-12-28T18:30:59;4.13;;;1.80;;
75698;SDS011;64313;51.018;13.742;2023-12-28T18:33:25;4.03;;;1.48;;
75698;SDS011;64313;51.018;13.742;2023-12-28T18:35:50;5.40;;;1.67;;
75698;SDS011;64313;51.018;13.742;2023-12-28T18:38:16;4.13;;;1.63;;
75698;SDS011;64313;51.018;13.742;2023-12-28T18:40:41;3.60;;;1.48;;
75698;SDS011;64313;51.018;13.742;2023-12-28T18:43:06;3.97;;;1.60;;
75698;SDS011;64313;51.018;13.742;2023-12-28T18:45:32;4.25;;;1.58;;
75698;SDS011;64313;51.018;13.742;2023-12-28T18:47:57;4.15;;;1.65;;
75698;SDS011;64313;51.018;13.742;2023-12-28T18:50:23;3.92;;;1.50;;
75698;SDS011;64313;51.018;13.742;2023-12-28T18:52:48;4.35;;;1.52;;
75698;SDS011;64313;51.018;13.742;2023-12-28T18:55:13;4.88;;;1.77;;
75698;SDS011;64313;51.018;13.742;2023-12-28T18:57:39;5.43;;;1.90;;
75698;SDS011;64313;51.018;13.742;2023-12-28T19:00:05;4.47;;;1.70;;
75698;SDS011;64313;51.018;13.742;2023-12-28T19:02:32;5.38;;;1.70;;
75698;SDS011;64313;51.018;13.742;2023-12-28T19:04:58;4.88;;;1.52;;
75698;SDS011;64313;51.018;13.742;2023-12-28T19:07:23;5.35;;;1.80;;
75698;SDS011;64313;51.018;13.742;2023-12-28T19:09:49;4.80;;;1.52;;
75698;SDS011;64313;51.018;13.742;2023-12-28T19:12:14;4.90;;;1.65;;
75698;SDS011;64313;51.018;13.742;2023-12-28T19:14:40;4.78;;;1.40;;
75698;SDS011;64313;51.018;13.742;2023-12-28T19:17:06;3.78;;;1.40;;
75698;SDS011;64313;51.018;13.742;2023-12-28T19:19:31;4.53;;;1.55;;
75698;SDS011;64313;51.018;13.742;2023-12-28T19:21:57;4.45;;;1.60;;
75698;SDS011;64313;51.018;13.742;2023-12-28T19:24:23;3.58;;;1.25;;
75698;SDS011;64313;51.018;13.742;2023-12-28T19:26:48;5.18;;;1.67;;
75698;SDS011;64313;51.018;13.742;2023-12-28T19:29:13;5.53;;;1.58;;
75698;SDS011;64313;51.018;13.742;2023-12-28T19:31:39;5.53;;;1.77;;
75698;SDS011;64313;51.018;13.742;2023-12-28T19:36:30;4.97;;;1.52;;
75698;SDS011;64313;51.018;13.742;2023-12-28T19:38:55;4.82;;;1.55;;
75698;SDS011;64313;51.018;13.742;2023-12-28T19:41:20;3.45;;;1.48;;
75698;SDS011;64313;51.018;13.742;2023-12-28T19:43:46;4.45;;;1.50;;
75698;SDS011;64313;51.018;13.742;2023-12-28T19:46:12;3.85;;;1.20;;
75698;SDS011;64313;51.018;13.742;2023-12-28T19:48:38;3.28;;;1.30;;
75698;SDS011;64313;51.018;13.742;2023-12-28T19:51:03;4.82;;;1.40;;
75698;SDS011;64313;51.018;13.742;2023-12-28T19:53:29;2.90;;;1.27;;
75698;SDS011;64313;51.018;13.742;2023-12-28T19:55:54;4.45;;;1.50;;
75698;SDS011;64313;51.018;13.742;2023-12-28T19:58:20;3.05;;;1.25;;
75698;SDS011;64313;51.018;13.742;2023-12-28T20:00:45;3.92;;;1.48;;
75698;SDS011;64313;51.018;13.742;2023-12-28T20:03:11;4.82;;;1.50;;
75698;SDS011;64313;51.018;13.742;2023-12-28T20:05:36;5.53;;;1.08;;
75698;SDS011;64313;51.018;13.742;2023-12-28T20:08:02;5.53;;;1.23;;
75698;SDS011;64313;51.018;13.742;2023-12-28T20:10:28;4.00;;;1.20;;
75698;SDS011;64313;51.018;13.742;2023-12-28T20:12:57;2.78;;;1.00;;
75698;SDS011;64313;51.018;13.742;2023-12-28T20:15:23;3.70;;;1.17;;
75698;SDS011;64313;51.018;13.742;2023-12-28T20:17:51;5.22;;;1.50;;
75698;SDS011;64313;51.018;13.742;2023-12-28T20:20:17;3.05;;;1.17;;
75698;SDS011;64313;51.018;13.742;2023-12-28T20:22:43;6.10;;;1.45;;
75698;SDS011;64313;51.018;13.742;2023-12-28T20:25:08;3.40;;;1.20;;
75698;SDS011;64313;51.018;13.742;2023-12-28T20:27:34;4.85;;;1.38;;
75698;SDS011;64313;51.018;13.742;2023-12-28T20:30:00;3.10;;;1.13;;
75698;SDS011;64313;51.018;13.742;2023-12-28T20:32:28;4.15;;;1.40;;
75698;SDS011;64313;51.018;13.742;2023-12-28T20:34:54;3.83;;;1.40;;
75698;SDS011;64313;51.018;13.742;2023-12-28T20:37:19;4.20;;;1.63;;
75698;SDS011;64313;51.018;13.742;2023-12-28T20:39:45;4.05;;;1.50;;
75698;SDS011;64313;51.018;13.742;2023-12-28T20:42:11;4.25;;;1.50;;
75698;SDS011;64313;51.018;13.742;2023-12-28T20:44:36;3.65;;;1.33;;
75698;SDS011;64313;51.018;13.742;2023-12-28T20:47:02;4.57;;;1.45;;
75698;SDS011;64313;51.018;13.742;2023-12-28T20:49:27;3.67;;;1.25;;
75698;SDS011;64313;51.018;13.742;2023-12-28T20:51:53;3.63;;;1.30;;
75698;SDS011;64313;51.018;13.742;2023-12-28T20:54:19;3.40;;;1.23;;
75698;SDS011;64313;51.018;13.742;2023-12-28T20:56:46;2.88;;;0.93;;
75698;SDS011;64313;51.018;13.742;2023-12-28T20:59:11;3.63;;;1.20;;
75698;SDS011;64313;51.018;13.742;2023-12-28T21:01:37;3.47;;;1.20;;
75698;SDS011;64313;51.018;13.742;2023-12-28T21:04:02;2.53;;;1.00;;
75698;SDS011;64313;51.018;13.742;2023-12-28T21:06:28;4.18;;;1.33;;
75698;SDS011;64313;51.018;13.742;2023-12-28T21:08:53;3.65;;;0.90;;
75698;SDS011;64313;51.018;13.742;2023-12-28T21:11:19;2.78;;;1.02;;
75698;SDS011;64313;51.018;13.742;2023-12-28T21:13:44;4.38;;;0.90;;
75698;SDS011;64313;51.018;13.742;2023-12-28T21:16:10;3.13;;;0.95;;
75698;SDS011;64313;51.018;13.742;2023-12-28T21:18:35;3.40;;;0.95;;
75698;SDS011;64313;51.018;13.742;2023-12-28T21:21:01;2.30;;;0.75;;
75698;SDS011;64313;51.018;13.742;2023-12-28T21:23:27;3.33;;;1.13;;
75698;SDS011;64313;51.018;13.742;2023-12-28T21:25:53;2.92;;;1.02;;
75698;SDS011;64313;51.018;13.742;2023-12-28T21:28:18;3.67;;;1.10;;
75698;SDS011;64313;51.018;13.742;2023-12-28T21:30:44;2.95;;;1.35;;
75698;SDS011;64313;51.018;13.742;2023-12-28T21:35:34;2.47;;;0.82;;
75698;SDS011;64313;51.018;13.742;2023-12-28T21:38:00;2.72;;;0.90;;
75698;SDS011;64313;51.018;13.742;2023-12-28T21:40:27;3.30;;;1.00;;
75698;SDS011;64313;51.018;13.742;2023-12-28T21:42:54;2.30;;;0.90;;
75698;SDS011;64313;51.018;13.742;2023-12-28T21:45:20;3.03;;;1.02;;
75698;SDS011;64313;51.018;13.742;2023-12-28T21:47:46;3.08;;;1.10;;
75698;SDS011;64313;51.018;13.742;2023-12-28T21:50:11;3.55;;;1.10;;
75698;SDS011;64313;51.018;13.742;2023-12-28T21:52:38;3.55;;;1.05;;
75698;SDS011;64313;51.018;13.742;2023-12-28T21:55:04;3.25;;;0.90;;
75698;SDS011;64313;51.018;13.742;2023-12-28T21:57:31;3.25;;;1.08;;
75698;SDS011;64313;51.018;13.742;2023-12-28T21:59:56;2.70;;;0.80;;
75698;SDS011;64313;51.018;13.742;2023-12-28T22:02:22;3.13;;;0.90;;
75698;SDS011;64313;51.018;13.742;2023-12-28T22:04:49;2.70;;;0.82;;
75698;SDS011;64313;51.018;13.742;2023-12-28T22:07:14;3.83;;;0.90;;
75698;SDS011;64313;51.018;13.742;2023-12-28T22:09:40;2.22;;;0.80;;
75698;SDS011;64313;51.018;13.742;2023-12-28T22:12:05;2.00;;;0.73;;
75698;SDS011;64313;51.018;13.742;2023-12-28T22:14:31;2.40;;;0.90;;
75698;SDS011;64313;51.018;13.742;2023-12-28T22:16:56;3.03;;;0.85;;
75698;SDS011;64313;51.018;13.742;2023-12-28T22:19:22;2.22;;;0.77;;
75698;SDS011;64313;51.018;13.742;2023-12-28T22:21:48;2.63;;;1.10;;
75698;SDS011;64313;51.018;13.742;2023-12-28T22:24:14;2.15;;;0.90;;
75698;SDS011;64313;51.018;13.742;2023-12-28T22:26:39;2.17;;;0.80;;
75698;SDS011;64313;51.018;13.742;2023-12-28T22:29:07;2.78;;;0.80;;
75698;SDS011;64313;51.018;13.742;2023-12-28T22:31:32;3.00;;;0.90;;
75698;SDS011;64313;51.018;13.742;2023-12-28T22:36:23;1.93;;;0.80;;
75698;SDS011;64313;51.018;13.742;2023-12-28T22:41:14;2.42;;;1.00;;
75698;SDS011;64313;51.018;13.742;2023-12-28T22:43:39;1.92;;;0.80;;
75698;SDS011;64313;51.018;13.742;2023-12-28T22:46:04;2.70;;;0.88;;
75698;SDS011;64313;51.018;13.742;2023-12-28T22:48:30;3.70;;;0.85;;
75698;SDS011;64313;51.018;13.742;2023-12-28T22:50:55;3.25;;;1.05;;
75698;SDS011;64313;51.018;13.742;2023-12-28T22:53:21;1.65;;;0.77;;
75698;SDS011;64313;51.018;13.742;2023-12-28T22:55:46;2.78;;;0.85;;
75698;SDS011;64313;51.018;13.742;2023-12-28T22:58:12;2.47;;;0.88;;
75698;SDS011;64313;51.018;13.742;2023-12-28T23:00:37;4.35;;;1.00;;
75698;SDS011;64313;51.018;13.742;2023-12-28T23:03:05;2.20;;;0.88;;
75698;SDS011;64313;51.018;13.742;2023-12-28T23:05:33;4.38;;;0.90;;
75698;SDS011;64313;51.018;13.742;2023-12-28T23:07:59;2.63;;;0.80;;
75698;SDS011;64313;51.018;13.742;2023-12-28T23:10:25;2.50;;;0.93;;
75698;SDS011;64313;51.018;13.742;2023-12-28T23:12:55;3.63;;;1.00;;
75698;SDS011;64313;51.018;13.742;2023-12-28T23:15:21;2.60;;;0.90;;
75698;SDS011;64313;51.018;13.742;2023-12-28T23:17:46;1.98;;;0.85;;
75698;SDS011;64313;51.018;13.742;2023-12-28T23:20:13;3.03;;;1.00;;
75698;SDS011;64313;51.018;13.742;2023-12-28T23:22:39;2.25;;;0.80;;
75698;SDS011;64313;51.018;13.742;2023-12-28T23:25:11;2.22;;;0.77;;
75698;SDS011;64313;51.018;13.742;2023-12-28T23:27:44;3.15;;;0.80;;
75698;SDS011;64313;51.018;13.742;2023-12-28T23:30:11;3.45;;;1.00;;
75698;SDS011;64313;51.018;13.742;2023-12-28T23:32:37;3.28;;;1.00;;
75698;SDS011;64313;51.018;13.742;2023-12-28T23:35:03;3.03;;;1.02;;
75698;SDS011;64313;51.018;13.742;2023-12-28T23:37:29;2.90;;;1.10;;
75698;SDS011;64313;51.018;13.742;2023-12-28T23:39:55;2.95;;;0.90;;
75698;SDS011;64313;51.018;13.742;2023-12-28T23:42:20;2.30;;;1.00;;